Time;durP1;ratioP1;P1;durP2;ratioP2;P2;SDS_P1;SDS_P2;PMS_P1;PMS_P2;Temp;Humidity;BMP_temperature;BMP_pressure;BME280_temperature;BME280_humidity;BME280_pressure;Samples;Min_cycle;Max_cycle;Signal;HPM_P1;HPM_P2
2023/08/12 00:02:45;;;;;;;28.10;16.60;;;;;;;13.64;70.16;99236.41;435422;1251;108474;-43
2023/08/12 00:12:51;;;;;;;26.80;16.50;;;;;;;13.68;70.86;99236.78;435337;1257;98035;-42
2023/08/12 00:22:58;;;;;;;29.70;17.00;;;;;;;13.93;71.33;99233.17;435280;1263;112195;-41
2023/08/12 00:33:05;;;;;;;26.40;16.60;;;;;;;14.03;71.60;99232.64;435038;1255;377200;-42
2023/08/12 00:43:11;;;;;;;29.30;17.30;;;;;;;13.81;71.48;99232.04;435388;1251;98504;-40
2023/08/12 00:53:18;;;;;;;22.20;14.30;;;;;;;13.60;71.48;99237.89;435312;1251;107911;-42
2023/08/12 01:03:26;;;;;;;22.20;14.50;;;;;;;13.47;71.89;99230.83;435312;1254;99251;-46
2023/08/12 01:13:37;;;;;;;25.70;15.70;;;;;;;13.41;72.17;99222.88;435257;1250;110973;-42
2023/08/12 01:23:43;;;;;;;27.50;17.20;;;;;;;13.31;72.42;99220.91;435230;1254;107648;-42
2023/08/12 01:33:53;;;;;;;24.90;15.90;;;;;;;13.18;72.70;99220.92;435294;1251;98008;-42
2023/08/12 01:54:04;;;;;;;25.80;12.60;;;;;;;12.81;72.74;99232.29;436203;1253;99215;-43
2023/08/12 02:04:12;;;;;;;21.50;15.30;;;;;;;12.72;72.86;99235.45;435292;1253;111629;-41
2023/08/12 02:14:19;;;;;;;24.70;17.70;;;;;;;12.59;73.23;99236.58;435714;1263;106615;-42
2023/08/12 02:24:26;;;;;;;30.40;17.40;;;;;;;12.56;73.64;99237.02;435343;1253;99243;-42
2023/08/12 02:34:33;;;;;;;26.90;16.50;;;;;;;12.56;73.84;99234.86;435279;1254;107526;-41
2023/08/12 02:44:40;;;;;;;24.90;16.40;;;;;;;12.55;74.22;99222.83;435312;1253;99317;-43
2023/08/12 02:54:47;;;;;;;30.00;17.40;;;;;;;12.60;74.47;99215.32;435315;1254;111461;-41
2023/08/12 03:04:54;;;;;;;23.40;17.50;;;;;;;12.58;74.70;99207.15;435146;1261;109392;-42
2023/08/12 03:15:00;;;;;;;28.20;16.80;;;;;;;12.64;75.19;99210.69;435347;1255;99260;-41
2023/08/12 03:25:08;;;;;;;24.00;16.30;;;;;;;12.73;75.41;99210.57;435221;1254;108588;-42
2023/08/12 03:35:16;;;;;;;26.70;17.90;;;;;;;12.88;75.66;99219.16;435348;1254;99262;-42
2023/08/12 03:45:23;;;;;;;;;;;;;;;12.85;75.61;99218.56;435312;1254;111485;-42
2023/08/12 03:55:31;;;;;;;24.80;16.80;;;;;;;12.91;75.89;99218.65;435159;1254;110510;-42
2023/08/12 04:05:38;;;;;;;25.00;16.30;;;;;;;13.09;75.87;99216.71;435308;1253;99234;-42
2023/08/12 04:15:44;;;;;;;19.60;12.90;;;;;;;13.97;75.82;99221.04;435393;1254;108304;-42
2023/08/12 04:25:53;;;;;;;20.50;14.40;;;;;;;15.40;75.28;99206.79;435369;1254;98468;-42
2023/08/12 04:36:00;;;;;;;20.70;15.60;;;;;;;16.52;74.41;99201.96;435331;1251;110638;-42
2023/08/12 04:46:06;;;;;;;21.10;13.40;;;;;;;17.55;73.71;99203.08;435271;1249;107264;-42
2023/08/12 04:56:11;;;;;;;24.90;13.90;;;;;;;18.23;72.31;99208.60;435384;1251;98813;-43
2023/08/12 05:06:18;;;;;;;18.80;13.70;;;;;;;18.48;71.67;99213.89;435250;1251;108991;-42
2023/08/12 05:16:24;;;;;;;19.80;14.10;;;;;;;19.10;70.82;99212.75;435269;1251;97993;-42
2023/08/12 05:26:29;;;;;;;20.40;13.90;;;;;;;19.62;69.66;99217.08;435362;1251;111148;-41
2023/08/12 05:36:38;;;;;;;13.00;11.30;;;;;;;20.14;68.64;99215.40;435259;1254;107108;-42
2023/08/12 05:46:44;;;;;;;18.20;10.80;;;;;;;20.57;67.19;99221.20;435329;1254;98013;-42
2023/08/12 05:56:50;;;;;;;31.90;11.30;;;;;;;20.90;66.09;99225.16;435432;1254;108544;-42
2023/08/12 06:17:04;;;;;;;12.80;6.90;;;;;;;22.82;63.75;99213.71;435325;1250;110431;-40
2023/08/12 06:27:12;;;;;;;15.10;6.90;;;;;;;23.51;61.75;99211.16;435348;1250;109417;-40
2023/08/12 06:37:18;;;;;;;;;;;;;;;24.19;59.17;99218.73;435337;1255;99307;-41
2023/08/12 06:47:25;;;;;;;6.70;5.60;;;;;;;24.52;57.47;99219.23;435458;1249;107354;-42
2023/08/12 06:57:32;;;;;;;8.40;5.60;;;;;;;25.15;56.46;99207.71;435623;1254;99079;-41
2023/08/12 07:07:40;;;;;;;9.10;5.00;;;;;;;25.30;54.39;99205.17;435318;1250;111022;-41
2023/08/12 07:17:47;;;;;;;8.50;4.40;;;;;;;25.40;52.41;99200.09;435461;1250;109105;-42
2023/08/12 07:27:53;;;;;;;8.50;4.90;;;;;;;25.63;50.41;99202.15;435376;1251;98599;-41
2023/08/12 07:38:03;;;;;;;4.90;3.90;;;;;;;25.74;49.46;99200.23;435468;1253;108567;-42
2023/08/12 07:48:12;;;;;;;5.70;4.50;;;;;;;25.75;48.62;99194.66;435327;1254;97931;-40
2023/08/12 07:58:19;;;;;;;8.50;4.00;;;;;;;26.18;48.45;99192.23;435470;1254;111379;-43
2023/08/12 08:08:27;;;;;;;7.10;3.00;;;;;;;26.40;47.84;99193.40;435348;1250;109793;-42
2023/08/12 08:18:34;;;;;;;6.70;4.50;;;;;;;26.48;47.18;99181.65;435440;1254;99256;-42
2023/08/12 08:28:42;;;;;;;4.30;3.00;;;;;;;26.56;46.58;99175.70;435596;1253;107850;-40
2023/08/12 08:48:55;;;;;;;2.90;2.60;;;;;;;27.61;46.47;99176.45;435401;1250;112873;-42
2023/08/12 08:59:02;;;;;;;3.40;3.10;;;;;;;27.99;45.79;99173.52;435243;1254;108770;-43
2023/08/12 09:39:31;;;;;;;3.20;2.30;;;;;;;27.43;43.97;99137.91;435365;1254;112892;-42
2023/08/12 09:49:36;;;;;;;4.90;2.70;;;;;;;27.23;43.73;99131.07;435456;1250;108492;-41
2023/08/12 10:09:55;;;;;;;4.20;2.10;;;;;;;27.20;43.49;99108.83;435309;1254;108729;-42
2023/08/12 10:20:05;;;;;;;2.90;2.60;;;;;;;26.96;43.49;99109.27;435294;1251;97970;-41
2023/08/12 10:30:13;;;;;;;5.30;2.70;;;;;;;27.05;43.96;99103.73;435701;1252;110324;-41
2023/08/12 10:40:23;;;;;;;3.50;2.10;;;;;;;27.40;44.29;99097.20;435350;1250;107483;-41
2023/08/12 10:50:32;;;;;;;2.50;2.00;;;;;;;27.25;43.22;99091.14;435362;1254;99217;-41
2023/08/12 11:00:38;;;;;;;1.80;1.70;;;;;;;27.53;43.72;99089.95;435258;1250;107578;-41
2023/08/12 11:10:45;;;;;;;2.20;2.00;;;;;;;27.97;43.55;99082.23;435243;1250;99298;-41
2023/08/12 11:20:51;;;;;;;3.30;2.00;;;;;;;28.04;43.38;99075.85;435040;1253;110831;-43
2023/08/12 11:30:57;;;;;;;3.80;2.30;;;;;;;28.35;43.54;99065.30;435358;1253;108115;-42
2023/08/12 11:41:05;;;;;;;3.80;2.70;;;;;;;28.35;43.05;99055.20;435265;1250;99195;-41
2023/08/12 11:51:10;;;;;;;4.50;2.10;;;;;;;28.37;42.84;99044.64;435399;1253;110532;-41
2023/08/12 12:11:23;;;;;;;4.60;2.10;;;;;;;28.31;42.65;99011.50;435438;1254;111747;-41
2023/08/12 12:21:29;;;;;;;2.30;2.10;;;;;;;28.40;42.68;99004.04;435259;1250;109702;-41
2023/08/12 12:31:36;;;;;;;3.10;2.80;;;;;;;28.40;42.24;99001.70;435061;1254;374620;-42
2023/08/12 12:41:46;;;;;;;4.20;2.60;;;;;;;28.06;41.52;98996.33;435327;1250;108855;-41
2023/08/12 12:51:55;;;;;;;3.30;2.40;;;;;;;27.82;41.71;98989.58;435455;1250;101523;-41
2023/08/12 13:02:01;;;;;;;7.60;2.40;;;;;;;27.83;42.15;98982.02;435493;1253;112317;-41
2023/08/12 13:12:09;;;;;;;3.80;2.60;;;;;;;27.87;41.91;98964.98;435467;1250;108376;-42
2023/08/12 13:22:15;;;;;;;4.60;2.40;;;;;;;27.77;41.82;98955.94;435562;1254;99228;-42
2023/08/12 13:32:22;;;;;;;;;;;;;;;27.94;42.64;98939.52;435388;1253;108631;-41
2023/08/12 13:42:31;;;;;;;4.00;2.50;;;;;;;27.83;42.58;98937.21;435483;1256;98501;-41
2023/08/12 14:12:52;;;;;;;3.40;2.20;;;;;;;27.94;42.59;98914.55;435340;1254;99257;-42
2023/08/12 14:23:01;;;;;;;4.00;2.70;;;;;;;27.99;42.44;98901.48;435283;1250;107999;-45
2023/08/12 14:43:13;;;;;;;;;;;;;;;27.74;42.12;98898.08;435478;1254;112233;-41
2023/08/12 14:53:19;;;;;;;4.90;2.40;;;;;;;27.63;42.47;98884.81;435223;1256;107369;-42
2023/08/12 15:03:26;;;;;;;4.40;2.50;;;;;;;27.70;42.63;98875.83;435499;1255;99231;-41
2023/08/12 15:13:34;;;;;;;3.00;2.60;;;;;;;27.67;42.51;98865.25;435334;1250;108852;-41
2023/08/12 15:23:40;;;;;;;4.50;2.30;;;;;;;27.66;42.77;98850.28;435161;1255;99250;-42
2023/08/12 15:43:54;;;;;;;3.40;2.60;;;;;;;27.71;42.97;98846.69;435276;1250;107705;-41
2023/08/12 15:54:06;;;;;;;2.90;2.50;;;;;;;27.65;42.74;98848.34;435484;1253;99339;-42
2023/08/12 16:04:12;;;;;;;2.50;2.30;;;;;;;27.43;42.96;98846.57;435338;1254;108823;-41
2023/08/12 16:14:19;;;;;;;5.60;2.30;;;;;;;27.32;43.22;98843.31;435309;1250;97969;-41
2023/08/12 16:24:27;;;;;;;17.00;2.60;;;;;;;27.19;43.23;98837.90;435277;1254;110882;-41
2023/08/12 16:34:34;;;;;;;5.20;1.90;;;;;;;27.07;43.36;98836.52;435268;1250;109289;-42
2023/08/12 16:44:41;;;;;;;3.20;2.50;;;;;;;26.89;43.54;98836.86;435354;1250;99303;-42
2023/08/12 16:54:49;;;;;;;2.90;2.40;;;;;;;26.62;43.85;98829.52;435486;1255;107515;-42
2023/08/12 17:35:23;;;;;;;6.70;4.30;;;;;;;25.40;46.74;98810.27;435033;1253;99214;-41
2023/08/12 17:45:29;;;;;;;8.70;4.90;;;;;;;25.00;47.62;98811.48;435328;1256;108409;-41
2023/08/12 17:55:37;;;;;;;9.50;5.70;;;;;;;24.62;48.61;98804.70;435484;1250;99213;-41
2023/08/12 18:05:45;;;;;;;8.30;4.90;;;;;;;24.14;49.59;98813.85;435229;1250;111912;-41
2023/08/12 18:15:52;;;;;;;12.40;5.20;;;;;;;23.66;50.65;98822.45;435256;1255;108585;-42
2023/08/12 18:26:00;;;;;;;8.90;6.30;;;;;;;23.15;51.66;98827.73;435529;1250;99245;-44
2023/08/12 18:36:07;;;;;;;12.90;8.40;;;;;;;22.58;52.59;98847.13;435135;1250;107826;-42
2023/08/12 18:56:20;;;;;;;14.90;9.40;;;;;;;21.93;54.42;98842.98;435366;1254;111497;-43
2023/08/12 19:06:25;;;;;;;16.50;9.90;;;;;;;21.65;54.99;98840.70;435325;1250;108037;-42
2023/08/12 19:36:42;;;;;;;24.90;16.70;;;;;;;21.16;56.88;98856.21;435333;1264;99234;-41
2023/08/12 19:56:52;;;;;;;38.00;29.20;;;;;;;20.96;58.47;98849.80;435444;1250;108754;-40
2023/08/12 20:06:58;;;;;;;54.10;37.60;;;;;;;20.85;59.28;98841.30;435639;1250;99450;-40
2023/08/12 20:17:09;;;;;;;54.20;38.50;;;;;;;20.67;59.96;98842.64;435595;1253;107728;-42
2023/08/12 20:37:22;;;;;;;32.30;23.40;;;;;;;20.38;60.95;98859.33;435310;1256;112039;-42
2023/08/12 20:47:30;;;;;;;30.50;24.40;;;;;;;20.24;61.29;98868.09;435343;1250;106686;-42
2023/08/12 20:57:36;;;;;;;58.00;39.90;;;;;;;20.01;62.28;98870.07;435354;1254;99238;-41
2023/08/12 21:07:43;;;;;;;76.10;53.90;;;;;;;19.85;63.53;98866.48;435309;1253;108600;-40
2023/08/12 21:17:50;;;;;;;46.00;34.20;;;;;;;19.71;64.38;98861.89;435272;1251;99337;-40
2023/08/12 21:27:57;;;;;;;66.90;36.70;;;;;;;19.56;65.22;98848.08;435339;1249;111473;-40
2023/08/12 21:38:04;;;;;;;28.60;20.60;;;;;;;19.44;65.98;98825.17;435220;1253;107685;-42
2023/08/12 21:58:15;;;;;;;35.70;19.80;;;;;;;19.21;66.83;98824.79;435347;1253;107831;-41
2023/08/12 22:08:22;;;;;;;22.20;16.80;;;;;;;19.08;66.91;98812.98;435409;1254;99533;-40
2023/08/12 22:18:29;;;;;;;22.20;15.70;;;;;;;18.91;67.31;98807.16;435277;1264;110709;-41
2023/08/12 22:28:36;;;;;;;22.60;16.60;;;;;;;18.74;67.92;98804.02;435295;1263;108396;-41
2023/08/12 22:38:42;;;;;;;18.40;14.70;;;;;;;18.61;68.42;98797.80;435324;1253;98487;-40
2023/08/12 22:48:50;;;;;;;16.60;12.40;;;;;;;18.51;68.84;98797.02;435313;1263;108116;-40
2023/08/12 23:09:01;;;;;;;15.00;12.30;;;;;;;18.24;68.71;98806.63;435352;1254;111522;-40
2023/08/12 23:19:07;;;;;;;20.10;10.60;;;;;;;18.07;68.88;98811.04;435268;1263;108154;-41
2023/08/12 23:29:19;;;;;;;15.00;9.60;;;;;;;18.03;69.13;98808.71;435383;1263;99218;-43
2023/08/12 23:39:26;;;;;;;17.50;10.30;;;;;;;18.00;69.65;98807.70;435404;1254;108297;-40
2023/08/12 23:49:33;;;;;;;13.20;9.90;;;;;;;17.99;70.28;98804.61;435411;1253;98002;-41
2023/08/12 23:59:41;;;;;;;15.50;9.40;;;;;;;18.07;70.22;98805.27;435405;1264;113312;-42
